Time;durP1;ratioP1;P1;durP2;ratioP2;P2;SDS_P1;SDS_P2;PMS_P1;PMS_P2;Temp;Humidity;BMP_temperature;BMP_pressure;BME280_temperature;BME280_humidity;BME280_pressure;Samples;Min_cycle;Max_cycle;Signal;HPM_P1;HPM_P2
2021/08/12 00:00:16;;;;;;;4.25;2.75;;;;;22.40;101830.00;;;;5048778;28;20203;-74
2021/08/12 00:02:43;;;;;;;3.30;2.53;;;;;22.40;101826.00;;;;5049386;28;20203;-74
2021/08/12 00:05:11;;;;;;;3.78;2.83;;;;;22.30;101831.00;;;;5048489;28;20207;-74
2021/08/12 00:07:39;;;;;;;3.63;2.78;;;;;22.30;101824.00;;;;5049123;28;20590;-74
2021/08/12 00:10:07;;;;;;;4.07;2.28;;;;;22.30;101823.00;;;;5048586;28;20207;-74
2021/08/12 00:12:34;;;;;;;3.22;2.90;;;;;22.30;101826.00;;;;5048575;28;20222;-74
2021/08/12 00:15:02;;;;;;;3.13;2.60;;;;;22.30;101835.00;;;;5048399;28;20231;-75
2021/08/12 00:17:30;;;;;;;2.78;2.50;;;;;22.30;101827.00;;;;5048645;28;20223;-74
2021/08/12 00:19:57;;;;;;;3.55;2.80;;;;;22.20;101821.00;;;;5048256;28;20199;-75
2021/08/12 00:22:24;;;;;;;5.68;3.17;;;;;22.20;101827.00;;;;5048415;28;20588;-75
2021/08/12 00:24:53;;;;;;;2.63;2.40;;;;;22.20;101824.00;;;;5048484;28;20211;-75
2021/08/12 00:27:20;;;;;;;4.43;2.75;;;;;22.20;101815.00;;;;5048361;28;20203;-74
2021/08/12 00:29:49;;;;;;;4.22;3.03;;;;;22.20;101809.00;;;;5048588;28;20207;-75
2021/08/12 00:32:16;;;;;;;3.22;2.65;;;;;22.20;101817.00;;;;5047940;28;20206;-75
2021/08/12 00:34:44;;;;;;;3.38;2.63;;;;;22.20;101810.00;;;;5048560;28;20227;-75
2021/08/12 00:37:11;;;;;;;3.00;2.55;;;;;22.10;101811.00;;;;5048051;28;20255;-74
2021/08/12 00:39:38;;;;;;;4.03;3.00;;;;;22.10;101803.00;;;;5048773;28;20203;-75
2021/08/12 00:42:07;;;;;;;5.32;2.58;;;;;22.10;101807.00;;;;5048263;28;20203;-75
2021/08/12 00:44:35;;;;;;;4.45;2.50;;;;;22.10;101803.00;;;;5048614;28;20206;-74
2021/08/12 00:47:02;;;;;;;4.13;2.92;;;;;22.10;101808.00;;;;5049957;28;20222;-75
2021/08/12 00:49:29;;;;;;;3.50;3.10;;;;;22.10;101820.00;;;;5052139;28;20669;-75
2021/08/12 00:51:56;;;;;;;4.50;2.88;;;;;22.10;101820.00;;;;5051132;28;20207;-74
2021/08/12 00:54:24;;;;;;;3.53;3.22;;;;;22.10;101819.00;;;;5051816;28;20203;-75
2021/08/12 00:56:51;;;;;;;3.72;3.10;;;;;22.00;101811.00;;;;5051174;28;20234;-75
2021/08/12 00:59:20;;;;;;;3.25;2.95;;;;;22.00;101815.00;;;;5052143;28;20207;-74
2021/08/12 01:01:47;;;;;;;4.90;3.13;;;;;22.00;101810.00;;;;5052460;28;20210;-75
2021/08/12 01:04:14;;;;;;;4.40;3.28;;;;;22.00;101803.00;;;;5052204;28;20697;-75
2021/08/12 01:06:51;;;;;;;3.33;3.00;;;;;21.90;101803.00;;;;5052122;28;20226;-74
2021/08/12 01:09:27;;;;;;;3.80;3.00;;;;;22.00;101798.00;;;;5051749;28;20206;-75
2021/08/12 01:12:00;;;;;;;3.97;3.33;;;;;22.00;101809.00;;;;5051624;28;20202;-75
2021/08/12 01:14:36;;;;;;;3.42;2.83;;;;;21.90;101807.00;;;;5051641;28;20237;-75
2021/08/12 01:17:06;;;;;;;3.60;2.92;;;;;21.90;101808.00;;;;5051229;28;20227;-75
2021/08/12 01:20:12;;;;;;;3.10;2.75;;;;;21.80;101810.00;;;;5051695;28;20230;-75
2021/08/12 01:22:42;;;;;;;3.30;3.00;;;;;21.90;101820.00;;;;5021589;28;20215;-74
2021/08/12 01:25:16;;;;;;;3.15;2.80;;;;;21.90;101816.00;;;;5050863;28;20482;-74
2021/08/12 01:27:46;;;;;;;3.60;3.30;;;;;21.90;101805.00;;;;5051329;28;20202;-75
2021/08/12 01:30:18;;;;;;;4.00;3.10;;;;;21.90;101809.00;;;;5051468;28;20208;-75
2021/08/12 01:32:55;;;;;;;3.75;3.15;;;;;21.80;101804.00;;;;5051746;28;20215;-75
2021/08/12 01:35:24;;;;;;;3.65;3.30;;;;;21.90;101797.00;;;;5050619;28;20235;-74
2021/08/12 01:37:58;;;;;;;4.10;3.45;;;;;21.80;101799.00;;;;5050963;28;20235;-75
2021/08/12 01:40:28;;;;;;;4.45;2.90;;;;;21.80;101810.00;;;;5051446;28;20203;-75
2021/08/12 01:42:57;;;;;;;3.90;2.88;;;;;21.80;101810.00;;;;5050763;28;20313;-75
2021/08/12 01:45:26;;;;;;;4.00;3.45;;;;;21.90;101815.00;;;;5051258;28;20202;-75
2021/08/12 01:47:54;;;;;;;4.53;3.33;;;;;21.80;101804.00;;;;5050964;28;20199;-75
2021/08/12 01:50:25;;;;;;;5.00;3.88;;;;;21.80;101803.00;;;;5050168;28;20203;-75
2021/08/12 01:52:54;;;;;;;4.68;3.50;;;;;21.80;101802.00;;;;5050877;28;20196;-75
2021/08/12 01:55:25;;;;;;;5.13;4.07;;;;;21.80;101799.00;;;;5050796;28;20211;-75
2021/08/12 01:57:52;;;;;;;5.25;3.38;;;;;21.80;101807.00;;;;5049294;28;20227;-75
2021/08/12 02:00:20;;;;;;;6.22;3.72;;;;;21.80;101807.00;;;;5051111;28;20222;-75
2021/08/12 02:02:48;;;;;;;6.05;4.47;;;;;21.80;101806.00;;;;5051614;28;20199;-75
2021/08/12 02:05:16;;;;;;;5.72;4.40;;;;;21.80;101807.00;;;;5050843;28;20204;-75
2021/08/12 02:07:47;;;;;;;4.35;3.75;;;;;21.80;101803.00;;;;5050536;28;20203;-74
2021/08/12 02:10:17;;;;;;;5.57;4.07;;;;;21.80;101802.00;;;;5050599;28;21811;-75
2021/08/12 02:12:45;;;;;;;6.43;5.00;;;;;21.80;101806.00;;;;5050895;28;20211;-74
2021/08/12 02:15:13;;;;;;;6.28;5.18;;;;;21.80;101804.00;;;;5049984;28;20226;-74
2021/08/12 02:17:41;;;;;;;6.28;5.10;;;;;21.80;101790.00;;;;5050711;28;20246;-74
2021/08/12 02:20:11;;;;;;;6.88;5.07;;;;;21.80;101777.00;;;;5050470;28;20218;-75
2021/08/12 02:22:44;;;;;;;6.50;4.82;;;;;21.80;101774.00;;;;5049848;28;20662;-74
2021/08/12 02:25:17;;;;;;;5.68;4.78;;;;;21.80;101777.00;;;;5050360;28;20688;-75
2021/08/12 02:27:47;;;;;;;6.70;4.80;;;;;21.80;101781.00;;;;5050178;28;20196;-74
2021/08/12 02:30:15;;;;;;;7.32;5.15;;;;;21.80;101772.00;;;;5049979;28;20214;-75
2021/08/12 02:32:45;;;;;;;8.05;5.70;;;;;21.80;101763.00;;;;5050416;28;20198;-75
2021/08/12 02:35:12;;;;;;;7.68;5.63;;;;;21.80;101762.00;;;;5049739;28;20227;-75
2021/08/12 02:37:42;;;;;;;6.45;5.32;;;;;21.80;101766.00;;;;5050112;28;20223;-75
2021/08/12 02:40:10;;;;;;;6.88;5.50;;;;;21.80;101752.00;;;;5049667;28;20211;-74
2021/08/12 02:42:42;;;;;;;9.38;6.05;;;;;21.80;101764.00;;;;5049739;28;20206;-75
2021/08/12 02:45:12;;;;;;;7.00;5.95;;;;;21.80;101764.00;;;;5049666;28;20228;-75
2021/08/12 02:47:41;;;;;;;11.02;6.10;;;;;21.80;101755.00;;;;5050371;28;20619;-75
2021/08/12 02:50:11;;;;;;;6.53;5.35;;;;;21.90;101758.00;;;;5049758;28;20234;-75
2021/08/12 02:52:40;;;;;;;7.43;5.35;;;;;21.90;101764.00;;;;5049214;28;20207;-75
2021/08/12 02:55:09;;;;;;;7.70;5.93;;;;;21.90;101763.00;;;;5049447;28;20674;-75
2021/08/12 02:57:38;;;;;;;7.30;5.90;;;;;21.90;101761.00;;;;5049690;28;20223;-75
2021/08/12 03:00:07;;;;;;;6.93;5.75;;;;;21.90;101762.00;;;;5049803;28;20203;-75
2021/08/12 03:02:35;;;;;;;7.97;5.80;;;;;21.90;101754.00;;;;5050015;28;20218;-74
2021/08/12 03:05:02;;;;;;;7.45;5.95;;;;;21.90;101756.00;;;;5049475;28;20740;-75
2021/08/12 03:07:32;;;;;;;8.32;6.05;;;;;21.90;101761.00;;;;5049397;28;20668;-75
2021/08/12 03:10:00;;;;;;;9.48;6.65;;;;;21.90;101757.00;;;;5049349;28;20204;-74
2021/08/12 03:12:29;;;;;;;7.57;6.22;;;;;21.90;101761.00;;;;5049568;28;20207;-75
2021/08/12 03:14:58;;;;;;;9.05;6.18;;;;;21.90;101762.00;;;;5049280;28;20257;-75
2021/08/12 03:17:27;;;;;;;9.30;7.50;;;;;21.90;101763.00;;;;5049156;28;20223;-75
2021/08/12 03:19:54;;;;;;;9.82;7.30;;;;;21.80;101755.00;;;;5048991;28;20200;-75
2021/08/12 03:22:24;;;;;;;7.93;6.50;;;;;21.80;101760.00;;;;5068412;28;20206;-75
2021/08/12 03:24:54;;;;;;;10.15;6.80;;;;;21.80;101761.00;;;;5069157;28;20210;-75
2021/08/12 03:27:21;;;;;;;10.60;6.88;;;;;21.80;101758.00;;;;5068974;28;20252;-75
2021/08/12 03:29:51;;;;;;;7.45;6.43;;;;;21.80;101765.00;;;;5069189;28;20432;-75
2021/08/12 03:32:20;;;;;;;8.52;6.65;;;;;21.80;101766.00;;;;5069081;28;20611;-75
2021/08/12 03:34:47;;;;;;;10.10;7.72;;;;;21.80;101761.00;;;;5068633;28;20253;-75
2021/08/12 03:37:15;;;;;;;9.07;6.85;;;;;21.80;101756.00;;;;5068240;28;20218;-75
2021/08/12 03:39:43;;;;;;;9.07;6.25;;;;;21.80;101756.00;;;;5069305;28;20203;-75
2021/08/12 03:42:11;;;;;;;7.32;6.10;;;;;21.70;101766.00;;;;5069357;28;20203;-75
2021/08/12 03:44:38;;;;;;;7.47;6.03;;;;;21.70;101765.00;;;;5069642;28;20568;-75
2021/08/12 03:47:07;;;;;;;7.28;6.57;;;;;21.70;101760.00;;;;5068396;28;20691;-75
2021/08/12 03:49:35;;;;;;;8.57;6.72;;;;;21.70;101767.00;;;;5068890;28;20207;-75
2021/08/12 03:52:03;;;;;;;7.30;6.05;;;;;21.70;101769.00;;;;5068819;28;20226;-75
2021/08/12 03:54:31;;;;;;;7.55;6.30;;;;;21.70;101775.00;;;;5067968;28;20210;-75
2021/08/12 03:56:58;;;;;;;8.23;6.75;;;;;21.70;101776.00;;;;5068320;28;20210;-75
2021/08/12 03:59:26;;;;;;;9.52;7.60;;;;;21.70;101772.00;;;;5067985;28;20706;-75
2021/08/12 04:01:53;;;;;;;7.68;6.72;;;;;21.70;101770.00;;;;5068799;28;20226;-74
2021/08/12 04:04:20;;;;;;;9.05;6.47;;;;;21.60;101773.00;;;;5068977;28;20202;-76
2021/08/12 04:06:49;;;;;;;8.80;6.53;;;;;21.60;101772.00;;;;5068581;28;20206;-75
2021/08/12 04:09:16;;;;;;;8.40;6.50;;;;;21.60;101772.00;;;;5068487;28;20206;-75
2021/08/12 04:11:44;;;;;;;7.82;6.35;;;;;21.60;101769.00;;;;5068437;28;20195;-75
2021/08/12 04:14:11;;;;;;;7.65;6.72;;;;;21.60;101771.00;;;;5068576;28;20254;-75
2021/08/12 04:16:38;;;;;;;8.73;6.53;;;;;21.60;101762.00;;;;5068606;28;20198;-75
2021/08/12 04:19:05;;;;;;;7.72;5.93;;;;;21.50;101770.00;;;;5067467;28;20727;-75
2021/08/12 04:21:33;;;;;;;9.10;6.18;;;;;21.60;101771.00;;;;5049795;28;20210;-75
2021/08/12 04:24:01;;;;;;;7.38;6.30;;;;;21.50;101777.00;;;;5052418;28;20200;-75
2021/08/12 04:26:28;;;;;;;9.48;7.35;;;;;21.50;101770.00;;;;5052256;28;20669;-75
2021/08/12 04:28:56;;;;;;;10.40;6.63;;;;;21.50;101761.00;;;;5052825;28;20207;-75
2021/08/12 04:31:23;;;;;;;8.13;6.20;;;;;21.50;101769.00;;;;5052623;28;20673;-74
2021/08/12 04:33:50;;;;;;;8.30;6.72;;;;;21.50;101774.00;;;;5052052;28;20206;-75
2021/08/12 04:36:18;;;;;;;7.28;6.30;;;;;21.50;101768.00;;;;5052102;28;20314;-74
2021/08/12 04:38:45;;;;;;;7.18;6.13;;;;;21.50;101767.00;;;;5052250;28;20223;-74
2021/08/12 04:41:14;;;;;;;9.20;7.40;;;;;21.50;101773.00;;;;5052263;28;20210;-75
2021/08/12 04:43:41;;;;;;;8.35;6.80;;;;;21.50;101777.00;;;;5052565;28;20203;-75
2021/08/12 04:46:08;;;;;;;8.00;6.70;;;;;21.50;101778.00;;;;5052768;28;20207;-75
2021/08/12 04:48:35;;;;;;;7.47;6.40;;;;;21.50;101782.00;;;;5052418;28;20666;-75
2021/08/12 04:51:03;;;;;;;8.68;7.03;;;;;21.50;101785.00;;;;5051540;28;20207;-75
2021/08/12 04:53:30;;;;;;;7.45;6.32;;;;;21.50;101791.00;;;;5052556;28;20207;-75
2021/08/12 04:55:57;;;;;;;8.85;7.43;;;;;21.50;101796.00;;;;5051911;28;20207;-75
2021/08/12 04:58:26;;;;;;;9.35;6.95;;;;;21.50;101790.00;;;;5051874;28;20701;-75
2021/08/12 05:00:53;;;;;;;9.35;7.18;;;;;21.50;101788.00;;;;5051005;28;20290;-75
2021/08/12 05:03:20;;;;;;;7.55;6.60;;;;;21.50;101789.00;;;;5052823;28;20207;-75
2021/08/12 05:05:47;;;;;;;9.18;6.97;;;;;21.50;101789.00;;;;5051988;28;20198;-75
2021/08/12 05:08:15;;;;;;;8.55;7.13;;;;;21.50;101799.00;;;;5052191;28;20313;-74
2021/08/12 05:10:46;;;;;;;7.18;6.47;;;;;21.50;101792.00;;;;5051201;28;20200;-75
2021/08/12 05:13:13;;;;;;;7.78;6.60;;;;;21.60;101787.00;;;;5052206;28;20619;-75
2021/08/12 05:15:42;;;;;;;12.38;7.60;;;;;21.60;101782.00;;;;5051829;28;20226;-75
2021/08/12 05:18:09;;;;;;;8.90;7.18;;;;;21.60;101782.00;;;;5051552;28;20227;-74
2021/08/12 05:20:36;;;;;;;9.98;7.22;;;;;21.60;101782.00;;;;5051373;28;20215;-74
2021/08/12 05:23:04;;;;;;;9.43;7.50;;;;;21.60;101791.00;;;;5051003;28;20212;-74
2021/08/12 05:25:32;;;;;;;9.93;7.55;;;;;21.70;101793.00;;;;5051488;28;20235;-75
2021/08/12 05:27:59;;;;;;;9.40;7.68;;;;;21.70;101794.00;;;;5051310;28;20207;-75
2021/08/12 05:30:26;;;;;;;8.77;7.88;;;;;21.70;101799.00;;;;5051284;28;20250;-75
2021/08/12 05:32:54;;;;;;;10.38;8.00;;;;;21.80;101793.00;;;;5050460;28;20204;-74
2021/08/12 05:35:22;;;;;;;9.27;6.35;;;;;21.80;101799.00;;;;5053253;28;20262;-75
2021/08/12 05:37:49;;;;;;;8.77;6.68;;;;;21.90;101794.00;;;;5071215;28;20203;-75
2021/08/12 05:40:16;;;;;;;8.90;7.50;;;;;21.90;101793.00;;;;5070805;28;20210;-75
2021/08/12 05:42:44;;;;;;;8.82;7.18;;;;;22.00;101791.00;;;;5058430;28;20199;-74
2021/08/12 05:45:11;;;;;;;8.45;7.07;;;;;22.00;101798.00;;;;5070802;28;20206;-74
2021/08/12 05:47:38;;;;;;;9.82;7.03;;;;;22.10;101800.00;;;;5071496;28;20203;-75
2021/08/12 05:50:08;;;;;;;9.20;7.70;;;;;22.20;101795.00;;;;5070989;28;20600;-75
2021/08/12 05:52:37;;;;;;;8.98;7.20;;;;;22.30;101786.00;;;;5066382;28;20207;-75
2021/08/12 05:55:05;;;;;;;11.02;7.95;;;;;22.30;101794.00;;;;5050274;28;20199;-75
2021/08/12 05:57:32;;;;;;;9.10;7.45;;;;;22.40;101795.00;;;;5050785;28;20222;-74
2021/08/12 05:59:59;;;;;;;11.88;7.40;;;;;22.50;101796.00;;;;5050742;28;20238;-75
2021/08/12 06:02:28;;;;;;;8.65;7.53;;;;;22.50;101790.00;;;;5051182;28;20214;-74
2021/08/12 06:04:55;;;;;;;8.25;6.90;;;;;22.50;101791.00;;;;5049958;28;20206;-75
2021/08/12 06:07:24;;;;;;;8.20;7.03;;;;;22.60;101790.00;;;;5050743;28;20207;-75
2021/08/12 06:09:52;;;;;;;11.30;7.38;;;;;22.60;101796.00;;;;5051321;28;20216;-74
2021/08/12 06:12:19;;;;;;;10.48;7.72;;;;;22.70;101811.00;;;;5050503;28;20204;-74
2021/08/12 06:14:46;;;;;;;8.43;7.03;;;;;22.70;101809.00;;;;5050391;28;20206;-74
2021/08/12 06:17:14;;;;;;;8.13;7.03;;;;;22.80;101806.00;;;;5050271;28;20203;-75
2021/08/12 06:19:41;;;;;;;10.20;7.22;;;;;22.90;101800.00;;;;5050382;28;20558;-75
2021/08/12 06:22:08;;;;;;;10.65;6.50;;;;;23.00;101807.00;;;;5049988;28;20210;-75
2021/08/12 06:24:37;;;;;;;9.70;7.05;;;;;23.00;101810.00;;;;5050005;28;20192;-75
2021/08/12 06:27:05;;;;;;;9.63;6.80;;;;;23.10;101805.00;;;;5058080;28;20722;-74
2021/08/12 06:29:32;;;;;;;13.02;6.90;;;;;23.10;101806.00;;;;5070613;28;20205;-74
2021/08/12 06:31:59;;;;;;;7.38;6.18;;;;;23.20;101814.00;;;;5069907;28;20584;-74
2021/08/12 06:34:26;;;;;;;8.70;5.95;;;;;23.20;101808.00;;;;5069706;28;20222;-75
2021/08/12 06:36:53;;;;;;;8.13;5.57;;;;;23.30;101814.00;;;;5069787;28;20387;-75
2021/08/12 06:39:21;;;;;;;8.68;6.10;;;;;23.30;101819.00;;;;5070115;28;20226;-75
2021/08/12 06:41:49;;;;;;;8.38;6.82;;;;;23.30;101811.00;;;;5069851;28;20206;-75
2021/08/12 06:44:17;;;;;;;8.10;6.63;;;;;23.40;101809.00;;;;5068794;28;20207;-75
2021/08/12 06:46:44;;;;;;;6.88;5.85;;;;;23.40;101811.00;;;;5070163;28;20203;-75
2021/08/12 06:49:11;;;;;;;9.80;6.80;;;;;23.50;101809.00;;;;5068872;28;20206;-75
2021/08/12 06:51:38;;;;;;;7.05;6.03;;;;;23.60;101811.00;;;;5069272;28;20211;-75
2021/08/12 06:54:05;;;;;;;6.45;5.28;;;;;23.60;101806.00;;;;5069095;28;20195;-75
2021/08/12 06:56:33;;;;;;;6.85;5.47;;;;;23.80;101804.00;;;;5069783;28;20222;-75
2021/08/12 06:59:01;;;;;;;8.90;5.70;;;;;23.80;101806.00;;;;5069366;28;20230;-75
2021/08/12 07:01:28;;;;;;;7.85;5.78;;;;;23.90;101811.00;;;;5068220;28;20203;-75
2021/08/12 07:03:58;;;;;;;7.05;5.75;;;;;24.00;101809.00;;;;5069780;28;20584;-75
2021/08/12 07:06:25;;;;;;;7.25;5.55;;;;;24.10;101814.00;;;;5069745;28;20222;-75
2021/08/12 07:08:54;;;;;;;10.02;6.18;;;;;24.10;101821.00;;;;5069514;28;20211;-75
2021/08/12 07:11:21;;;;;;;6.68;5.82;;;;;24.20;101813.00;;;;5070347;28;20234;-75
2021/08/12 07:13:49;;;;;;;10.63;6.60;;;;;24.30;101812.00;;;;5069188;28;20447;-75
2021/08/12 07:16:18;;;;;;;8.15;5.47;;;;;24.40;101817.00;;;;5069310;28;20290;-75
2021/08/12 07:18:46;;;;;;;9.43;6.45;;;;;24.50;101822.00;;;;5054787;28;20223;-75
2021/08/12 07:21:17;;;;;;;8.38;6.63;;;;;24.50;101813.00;;;;5049054;28;20215;-75
2021/08/12 07:23:45;;;;;;;8.85;6.10;;;;;24.70;101812.00;;;;5049378;28;20670;-75
2021/08/12 07:26:13;;;;;;;9.85;6.68;;;;;24.70;101809.00;;;;5049231;28;20209;-75
2021/08/12 07:28:40;;;;;;;8.75;5.97;;;;;24.80;101807.00;;;;5049584;28;20195;-75
2021/08/12 07:31:09;;;;;;;11.85;6.93;;;;;24.90;101808.00;;;;5048796;28;20195;-75
2021/08/12 07:33:37;;;;;;;12.85;6.63;;;;;25.00;101817.00;;;;5049216;28;20203;-75
2021/08/12 07:36:05;;;;;;;7.55;6.50;;;;;25.10;101814.00;;;;5049278;28;20243;-75
2021/08/12 07:38:33;;;;;;;9.60;6.60;;;;;25.20;101810.00;;;;5049290;28;20196;-75
2021/08/12 07:41:01;;;;;;;8.48;6.22;;;;;25.30;101811.00;;;;5048992;28;20677;-75
2021/08/12 07:43:29;;;;;;;13.48;5.88;;;;;25.40;101815.00;;;;5049227;28;20234;-75
2021/08/12 07:45:56;;;;;;;9.95;5.85;;;;;25.40;101814.00;;;;5048303;28;20211;-75
2021/08/12 07:48:23;;;;;;;9.45;6.50;;;;;25.50;101821.00;;;;5049235;28;20199;-75
2021/08/12 07:50:52;;;;;;;7.18;5.45;;;;;25.60;101822.00;;;;5049198;28;20211;-75
2021/08/12 07:53:19;;;;;;;9.25;6.07;;;;;25.70;101823.00;;;;5048819;28;20230;-75
2021/08/12 07:55:46;;;;;;;7.18;6.43;;;;;25.80;101820.00;;;;5048332;28;20207;-75
2021/08/12 07:58:13;;;;;;;10.68;6.45;;;;;25.80;101823.00;;;;5048594;28;20207;-75
2021/08/12 08:00:41;;;;;;;6.03;5.35;;;;;25.90;101821.00;;;;5048911;28;20234;-75
2021/08/12 08:03:08;;;;;;;8.25;6.03;;;;;26.00;101823.00;;;;5048814;28;20214;-75
2021/08/12 08:05:35;;;;;;;9.20;5.60;;;;;26.10;101824.00;;;;5048980;28;20211;-76
2021/08/12 08:08:04;;;;;;;8.48;5.82;;;;;26.10;101823.00;;;;5048461;28;20203;-75
2021/08/12 08:10:32;;;;;;;6.00;5.05;;;;;26.20;101828.00;;;;5048922;28;20215;-76
2021/08/12 08:12:59;;;;;;;8.02;5.55;;;;;26.30;101833.00;;;;5048496;28;20803;-76
2021/08/12 08:15:27;;;;;;;7.47;5.80;;;;;26.40;101830.00;;;;5048968;28;20215;-75
2021/08/12 08:17:54;;;;;;;5.53;4.38;;;;;26.40;101834.00;;;;5048005;28;20200;-75
2021/08/12 08:20:21;;;;;;;6.63;5.13;;;;;26.50;101834.00;;;;5048600;28;20231;-75
2021/08/12 08:22:49;;;;;;;6.30;5.03;;;;;26.60;101833.00;;;;5048578;28;20211;-75
2021/08/12 08:25:17;;;;;;;6.15;4.75;;;;;26.70;101832.00;;;;5049969;28;20203;-76
2021/08/12 08:27:45;;;;;;;6.03;4.80;;;;;26.80;101832.00;;;;5068855;28;20202;-75
2021/08/12 08:30:14;;;;;;;10.23;5.60;;;;;26.90;101827.00;;;;5068290;28;20203;-75
2021/08/12 08:32:41;;;;;;;7.53;5.20;;;;;27.00;101817.00;;;;5069018;28;20289;-77
2021/08/12 08:35:09;;;;;;;7.38;5.10;;;;;27.10;101819.00;;;;5068328;28;20235;-76
2021/08/12 08:37:36;;;;;;;7.50;5.43;;;;;27.20;101827.00;;;;5068377;28;20228;-76
2021/08/12 08:40:04;;;;;;;6.32;4.93;;;;;27.30;101818.00;;;;5068425;28;20267;-75
2021/08/12 08:42:33;;;;;;;7.55;5.35;;;;;27.40;101820.00;;;;5058726;28;20217;-75
2021/08/12 08:45:01;;;;;;;5.38;4.50;;;;;27.50;101828.00;;;;5048688;28;20226;-75
2021/08/12 08:47:29;;;;;;;6.28;4.75;;;;;27.60;101827.00;;;;5049007;28;20212;-75
2021/08/12 08:49:57;;;;;;;7.10;4.88;;;;;27.70;101826.00;;;;5048039;28;20212;-76
2021/08/12 08:52:26;;;;;;;6.15;4.80;;;;;27.80;101828.00;;;;5048263;28;20207;-76
2021/08/12 08:54:54;;;;;;;5.78;4.78;;;;;27.90;101828.00;;;;5047689;28;20204;-76
2021/08/12 08:57:22;;;;;;;6.60;5.10;;;;;28.00;101835.00;;;;5048411;28;20215;-75
2021/08/12 08:59:50;;;;;;;4.97;4.13;;;;;28.00;101833.00;;;;5048621;28;20228;-76
2021/08/12 09:02:18;;;;;;;4.63;3.60;;;;;28.10;101830.00;;;;5048264;28;20200;-76
2021/08/12 09:04:45;;;;;;;4.63;3.78;;;;;28.20;101836.00;;;;5048569;28;20203;-76
2021/08/12 09:07:12;;;;;;;4.70;3.85;;;;;28.30;101835.00;;;;5047978;28;20647;-76
2021/08/12 09:09:40;;;;;;;4.95;3.72;;;;;28.30;101836.00;;;;5051619;28;20199;-75
2021/08/12 09:12:08;;;;;;;3.58;2.70;;;;;28.40;101840.00;;;;5051786;28;20661;-75
2021/08/12 09:14:38;;;;;;;3.72;2.97;;;;;28.40;101843.00;;;;5051794;28;20685;-76
2021/08/12 09:17:26;;;;;;;5.05;4.25;;;;;28.40;101842.00;;;;5052019;28;20557;-76
2021/08/12 09:20:03;;;;;;;5.75;3.90;;;;;28.50;101850.00;;;;5051035;28;20234;-76
2021/08/12 09:22:31;;;;;;;5.32;3.75;;;;;28.60;101849.00;;;;5051683;28;20214;-75
2021/08/12 09:24:59;;;;;;;4.50;3.53;;;;;28.70;101846.00;;;;5051304;28;20202;-76
2021/08/12 09:27:26;;;;;;;3.60;3.17;;;;;28.80;101842.00;;;;5051136;28;20196;-75
2021/08/12 09:30:09;;;;;;;5.25;2.88;;;;;28.90;101843.00;;;;5051339;28;20202;-75
2021/08/12 09:32:47;;;;;;;4.80;3.67;;;;;29.00;101848.00;;;;5051754;28;20202;-75
2021/08/12 09:35:24;;;;;;;3.55;2.97;;;;;29.20;101847.00;;;;5068749;28;20704;-75
2021/08/12 09:37:52;;;;;;;4.47;3.22;;;;;29.30;101838.00;;;;5071642;28;20206;-75
2021/08/12 09:40:26;;;;;;;3.40;2.72;;;;;29.30;101835.00;;;;5071197;28;20222;-75
2021/08/12 09:42:58;;;;;;;4.25;3.60;;;;;29.40;101838.00;;;;5071448;28;20203;-75
2021/08/12 09:45:26;;;;;;;4.75;3.20;;;;;29.50;101831.00;;;;5071139;28;20257;-75
2021/08/12 09:47:55;;;;;;;4.55;3.78;;;;;29.60;101836.00;;;;5070881;28;20241;-76
2021/08/12 09:50:27;;;;;;;5.45;4.13;;;;;29.60;101843.00;;;;5070671;28;20231;-75
2021/08/12 09:52:54;;;;;;;5.07;3.45;;;;;29.80;101841.00;;;;5070927;28;20209;-76
2021/08/12 09:55:23;;;;;;;4.65;3.78;;;;;29.80;101839.00;;;;5070980;28;20789;-76
2021/08/12 09:57:52;;;;;;;5.15;3.72;;;;;29.90;101839.00;;;;5070103;28;20618;-75
2021/08/12 10:00:32;;;;;;;3.63;3.30;;;;;29.90;101847.00;;;;5070904;28;20587;-75
2021/08/12 10:03:02;;;;;;;3.50;2.72;;;;;30.10;101845.00;;;;5070804;28;20199;-75
2021/08/12 10:05:30;;;;;;;3.88;2.55;;;;;30.20;101840.00;;;;5070799;28;20562;-76
2021/08/12 10:07:57;;;;;;;3.97;3.47;;;;;30.30;101850.00;;;;5068900;28;20195;-76
2021/08/12 10:10:27;;;;;;;5.10;3.80;;;;;30.30;101853.00;;;;5070383;28;20206;-76
2021/08/12 10:12:56;;;;;;;5.22;3.30;;;;;30.40;101851.00;;;;5070571;28;20201;-76
2021/08/12 10:15:25;;;;;;;4.47;3.05;;;;;30.40;101853.00;;;;5070596;28;20207;-76
2021/08/12 10:17:53;;;;;;;3.35;3.05;;;;;30.40;101850.00;;;;5054721;28;20238;-77
2021/08/12 10:20:24;;;;;;;4.20;2.95;;;;;30.40;101854.00;;;;5049570;28;20223;-77
2021/08/12 10:22:54;;;;;;;3.85;3.13;;;;;30.50;101854.00;;;;5050322;28;20198;-77
2021/08/12 10:25:24;;;;;;;4.32;2.85;;;;;30.50;101849.00;;;;5050162;28;20207;-76
2021/08/12 10:27:54;;;;;;;3.45;2.78;;;;;30.50;101846.00;;;;5050484;28;20302;-76
2021/08/12 10:30:23;;;;;;;4.63;2.95;;;;;30.60;101858.00;;;;5050179;28;20202;-75
2021/08/12 10:32:54;;;;;;;3.60;3.05;;;;;30.70;101844.00;;;;5050210;28;20621;-76
2021/08/12 10:35:23;;;;;;;4.68;3.28;;;;;30.70;101846.00;;;;5049337;28;20243;-77
2021/08/12 10:37:54;;;;;;;5.60;3.60;;;;;30.80;101844.00;;;;5050018;28;20196;-76
2021/08/12 10:40:22;;;;;;;4.22;3.10;;;;;30.80;101840.00;;;;5049825;28;20223;-75
2021/08/12 10:42:51;;;;;;;4.68;3.63;;;;;30.80;101842.00;;;;5050849;28;20214;-75
2021/08/12 10:45:20;;;;;;;4.30;3.10;;;;;30.90;101842.00;;;;5049913;28;20211;-74
2021/08/12 10:47:52;;;;;;;5.70;3.42;;;;;30.90;101850.00;;;;5050221;28;20204;-75
2021/08/12 10:50:36;;;;;;;4.63;3.58;;;;;30.90;101836.00;;;;5049835;28;20206;-76
2021/08/12 10:53:19;;;;;;;3.28;2.92;;;;;31.00;101838.00;;;;5049702;28;20203;-75
2021/08/12 10:56:07;;;;;;;3.25;2.80;;;;;31.00;101834.00;;;;5049304;28;20191;-76
2021/08/12 10:58:36;;;;;;;4.70;3.10;;;;;31.20;101831.00;;;;5050306;28;20674;-75
2021/08/12 11:01:06;;;;;;;5.55;3.60;;;;;31.20;101848.00;;;;5049256;28;20227;-76
2021/08/12 11:03:44;;;;;;;5.00;3.28;;;;;31.20;101845.00;;;;5049871;28;20662;-75
2021/08/12 11:06:14;;;;;;;8.15;3.60;;;;;31.20;101843.00;;;;5048803;28;20199;-75
2021/08/12 11:09:02;;;;;;;5.57;3.97;;;;;31.20;101842.00;;;;5049917;28;20203;-75
2021/08/12 11:11:56;;;;;;;4.63;3.67;;;;;31.10;101847.00;;;;5049815;28;20257;-76
2021/08/12 11:14:51;;;;;;;5.22;3.40;;;;;31.10;101839.00;;;;5049363;28;20258;-76
2021/08/12 11:17:20;;;;;;;3.90;2.90;;;;;31.30;101838.00;;;;5050099;28;20580;-75
2021/08/12 11:19:47;;;;;;;3.90;2.95;;;;;31.30;101838.00;;;;5049083;28;20222;-75
2021/08/12 11:22:30;;;;;;;4.45;3.88;;;;;31.20;101841.00;;;;5049073;28;20677;-75
2021/08/12 11:24:58;;;;;;;6.70;3.65;;;;;31.40;101845.00;;;;5049235;28;20199;-75
2021/08/12 11:27:43;;;;;;;7.32;4.13;;;;;31.30;101851.00;;;;5049027;28;20206;-75
2021/08/12 11:30:50;;;;;;;4.57;3.65;;;;;31.30;101847.00;;;;5048904;28;20249;-75
2021/08/12 11:33:31;;;;;;;4.50;3.90;;;;;31.40;101848.00;;;;5058772;28;20211;-76
2021/08/12 11:36:13;;;;;;;4.70;3.35;;;;;31.40;101852.00;;;;5069057;28;20322;-76
2021/08/12 11:38:46;;;;;;;5.05;3.72;;;;;31.40;101849.00;;;;5069751;28;20202;-75
2021/08/12 11:41:16;;;;;;;5.80;4.55;;;;;31.40;101841.00;;;;5067301;28;20234;-75
2021/08/12 11:43:45;;;;;;;8.50;5.07;;;;;31.40;101842.00;;;;5057896;28;20463;-76
2021/08/12 11:46:13;;;;;;;5.03;3.53;;;;;31.40;101853.00;;;;5068872;28;20206;-76
2021/08/12 11:48:41;;;;;;;7.13;4.35;;;;;31.40;101847.00;;;;5068666;28;20217;-76
2021/08/12 11:51:09;;;;;;;4.13;3.45;;;;;31.50;101843.00;;;;5050916;28;20624;-76
2021/08/12 11:53:56;;;;;;;8.75;5.00;;;;;31.40;101840.00;;;;5049021;28;20211;-75
2021/08/12 11:56:26;;;;;;;5.65;4.45;;;;;31.50;101836.00;;;;5048456;28;20195;-76
2021/08/12 11:58:54;;;;;;;7.25;4.78;;;;;31.50;101831.00;;;;5048976;28;20219;-76
2021/08/12 12:01:23;;;;;;;5.50;4.38;;;;;31.50;101833.00;;;;5048688;28;20644;-76
2021/08/12 12:03:56;;;;;;;5.53;4.32;;;;;31.50;101826.00;;;;5048700;28;20199;-77
2021/08/12 12:06:32;;;;;;;5.80;4.07;;;;;31.50;101832.00;;;;5048536;28;20207;-76
2021/08/12 12:09:20;;;;;;;6.65;4.70;;;;;31.40;101825.00;;;;5048916;28;20265;-75
2021/08/12 12:11:59;;;;;;;5.68;4.38;;;;;31.50;101832.00;;;;5048732;28;20203;-76
2021/08/12 12:14:28;;;;;;;6.38;4.32;;;;;31.50;101832.00;;;;5048436;28;20199;-75
2021/08/12 12:17:16;;;;;;;6.03;4.40;;;;;31.30;101837.00;;;;5048592;28;20203;-75
2021/08/12 12:20:10;;;;;;;7.35;3.90;;;;;31.30;101833.00;;;;5048816;28;20680;-75